createdAt,value
2023-04-20T00:00:18.496Z,99951.97
2023-04-20T00:01:22.013Z,99949.30
2023-04-20T00:02:24.556Z,99951.97
2023-04-20T00:03:29.297Z,99953.68
2023-04-20T00:04:31.739Z,99956.34
2023-04-20T00:05:34.242Z,99951.11
2023-04-20T00:06:36.964Z,99945.71
2023-04-20T00:07:39.434Z,99945.79
2023-04-20T00:08:41.685Z,99941.34
2023-04-20T00:09:44.326Z,99942.20
2023-04-20T00:10:46.858Z,99943.05
2023-04-20T00:11:48.989Z,99940.31
2023-04-20T00:12:51.170Z,99941.25
2023-04-20T00:13:53.435Z,99941.25
2023-04-20T00:14:55.707Z,99944.85
2023-04-20T00:15:57.880Z,99943.05
2023-04-20T00:17:00.313Z,99947.51
2023-04-20T00:18:02.530Z,99939.62
2023-04-20T00:19:04.796Z,99946.65
2023-04-20T00:20:08.184Z,99942.20
2023-04-20T00:21:10.481Z,99946.65
2023-04-20T00:22:13.447Z,99938.68
2023-04-20T00:23:15.677Z,99934.30
2023-04-20T00:24:17.865Z,99943.99
2023-04-20T00:25:20.553Z,99937.82
2023-04-20T00:26:22.973Z,99936.14
2023-04-20T00:27:25.516Z,99931.65
2023-04-20T00:28:27.663Z,99935.28
2023-04-20T00:29:29.748Z,99936.02
2023-04-20T00:30:32.924Z,99936.02
2023-04-20T00:31:35.529Z,99927.30
2023-04-20T00:32:37.706Z,99927.30
2023-04-20T00:33:40.086Z,99928.99
2023-04-20T00:34:43.023Z,99925.59
2023-04-20T00:35:45.131Z,99921.99
2023-04-20T00:36:47.513Z,99929.11
2023-04-20T00:37:49.808Z,99930.82
2023-04-20T00:38:52.062Z,99931.77
2023-04-20T00:39:55.051Z,99917.54
2023-04-20T00:40:57.579Z,99916.68
2023-04-20T00:43:17.216Z,99917.87
2023-04-20T00:44:19.594Z,99927.39
2023-04-20T00:45:22.115Z,99923.88
2023-04-20T00:46:24.589Z,99922.16
2023-04-20T00:47:26.994Z,99914.19
2023-04-20T00:48:29.554Z,99916.76
2023-04-20T00:49:32.387Z,99916.84
2023-04-20T00:50:37.742Z,99918.56
2023-04-20T00:51:41.840Z,99911.53
2023-04-20T00:52:44.916Z,99910.67
2023-04-20T00:53:47.109Z,99916.84
2023-04-20T00:54:51.201Z,99914.19
2023-04-20T00:55:53.562Z,99907.93
2023-04-20T00:56:56.460Z,99916.84
2023-04-20T00:57:58.888Z,99907.93
2023-04-20T00:59:01.818Z,99909.65
2023-04-20T01:00:05.892Z,99904.34
2023-04-20T01:01:08.133Z,99910.59
2023-04-20T01:02:10.563Z,99908.79
2023-04-20T01:03:13.735Z,99893.87
2023-04-20T01:04:17.332Z,99906.22
2023-04-20T01:05:20.802Z,99897.47
2023-04-20T01:06:23.734Z,99898.33
2023-04-20T01:07:28.081Z,99900.20
2023-04-20T01:08:30.215Z,99901.06
2023-04-20T01:09:32.324Z,99903.72
2023-04-20T01:10:34.952Z,99904.66
2023-04-20T01:11:37.145Z,99899.34
2023-04-20T01:12:39.892Z,99899.34
2023-04-20T01:13:42.560Z,99896.77
2023-04-20T01:14:45.005Z,99891.54
2023-04-20T01:15:47.717Z,99897.62
2023-04-20T01:16:50.725Z,99892.31
2023-04-20T01:17:53.146Z,99897.80
2023-04-20T01:18:55.452Z,99899.51
2023-04-20T01:19:57.954Z,99897.80
2023-04-20T01:21:00.539Z,99904.05
2023-04-20T01:22:02.943Z,99892.56
2023-04-20T01:23:05.529Z,99897.02
2023-04-20T01:24:08.122Z,99892.67
2023-04-20T01:25:11.250Z,99892.48
2023-04-20T01:26:16.332Z,99889.05
2023-04-20T01:27:19.208Z,99897.88
2023-04-20T01:28:21.518Z,99888.38
2023-04-20T01:29:24.099Z,99892.75
2023-04-20T01:30:26.371Z,99895.41
2023-04-20T01:31:28.677Z,99892.75
2023-04-20T01:32:32.749Z,99889.23
2023-04-20T01:33:34.978Z,99884.87
2023-04-20T01:34:37.578Z,99889.23
2023-04-20T01:35:42.089Z,99886.66
2023-04-20T01:36:45.395Z,99887.52
2023-04-20T01:37:47.785Z,99890.18
2023-04-20T01:38:52.033Z,99885.81
2023-04-20T01:39:54.801Z,99891.12
2023-04-20T01:40:57.244Z,99885.81
2023-04-20T01:41:59.846Z,99887.69
2023-04-20T01:43:02.007Z,99886.83
2023-04-20T01:44:04.247Z,99890.34
2023-04-20T01:45:07.328Z,99890.34
2023-04-20T01:46:10.753Z,99881.52
2023-04-20T01:47:13.018Z,99885.97
2023-04-20T01:48:15.989Z,99885.03
2023-04-20T01:49:18.383Z,99880.66
2023-04-20T01:50:21.197Z,99884.25
2023-04-20T01:51:25.283Z,99879.80
2023-04-20T01:52:27.444Z,99879.80
2023-04-20T01:53:29.715Z,99884.25
2023-04-20T01:54:31.976Z,99871.91
2023-04-20T01:55:34.203Z,99874.57
2023-04-20T01:56:36.791Z,99874.73
2023-04-20T01:57:39.056Z,99868.48
2023-04-20T01:58:41.261Z,99869.34
2023-04-20T01:59:43.517Z,99863.17
2023-04-20T02:00:46.515Z,99866.77
2023-04-20T02:01:49.033Z,99865.05
2023-04-20T02:02:51.509Z,99869.42
2023-04-20T02:03:54.361Z,99865.05
2023-04-20T02:04:56.676Z,99873.98
2023-04-20T02:05:58.970Z,99860.70
2023-04-20T02:07:03.078Z,99869.61
2023-04-20T02:08:05.324Z,99866.09
2023-04-20T02:09:07.523Z,99863.44
2023-04-20T02:10:11.750Z,99866.18
2023-04-20T02:11:13.841Z,99860.87
2023-04-20T02:12:15.996Z,99861.80
2023-04-20T02:13:20.524Z,99867.20
2023-04-20T02:14:26.308Z,99869.69
2023-04-20T02:15:31.090Z,99862.66
2023-04-20T02:16:35.068Z,99863.52
2023-04-20T02:17:38.484Z,99858.22
2023-04-20T02:20:12.505Z,99863.52
2023-04-20T02:21:18.012Z,99862.66
2023-04-20T02:22:26.393Z,99858.22
2023-04-20T02:23:31.232Z,99859.16
2023-04-20T02:24:36.028Z,99854.78
2023-04-20T02:25:40.782Z,99859.23
2023-04-20T02:26:47.161Z,99855.77
2023-04-20T02:27:50.911Z,99856.63
2023-04-20T02:28:56.352Z,99858.34
2023-04-20T02:30:07.527Z,99855.69
2023-04-20T02:31:12.260Z,99854.78
2023-04-20T02:32:18.802Z,99849.52
2023-04-20T02:33:24.602Z,99853.92
2023-04-20T02:34:31.446Z,99857.44
2023-04-20T02:35:36.550Z,99851.39
2023-04-20T02:36:41.078Z,99845.23
2023-04-20T02:37:46.794Z,99841.71
2023-04-20T02:38:53.300Z,99844.37
2023-04-20T02:41:03.880Z,99835.84
2023-04-20T02:42:06.227Z,99840.85
2023-04-20T02:43:08.789Z,99840.00
2023-04-20T02:44:11.827Z,99845.30
2023-04-20T02:45:13.968Z,99845.39
2023-04-20T02:46:18.103Z,99837.42
2023-04-20T02:47:20.906Z,99841.80
2023-04-20T02:48:23.301Z,99841.87
2023-04-20T02:49:25.516Z,99836.67
2023-04-20T02:50:27.881Z,99841.87
2023-04-20T02:51:48.459Z,99847.19
2023-04-20T02:52:50.866Z,99839.33
2023-04-20T02:53:53.030Z,99846.33
2023-04-20T02:54:57.241Z,99854.21
2023-04-20T02:55:59.491Z,99842.73
2023-04-20T02:57:03.660Z,99843.78
2023-04-20T02:58:06.182Z,99846.33
2023-04-20T02:59:26.683Z,99844.64
2023-04-20T03:00:36.838Z,99855.27
2023-04-20T03:01:41.118Z,99854.41
2023-04-20T03:02:45.226Z,99846.52
2023-04-20T03:03:47.765Z,99850.89
2023-04-20T03:04:50.640Z,99851.83
2023-04-20T03:05:56.780Z,99844.80
2023-04-20T03:07:00.155Z,99846.52
2023-04-20T03:08:04.405Z,99850.11
2023-04-20T03:09:06.695Z,99856.36
2023-04-20T03:10:13.776Z,99852.84
2023-04-20T03:11:17.881Z,99852.93
2023-04-20T03:12:20.563Z,99853.87
2023-04-20T03:13:24.658Z,99854.72
2023-04-20T03:14:35.007Z,99846.84
2023-04-20T03:15:37.715Z,99850.44
2023-04-20T03:16:44.929Z,99850.27
2023-04-20T03:17:47.395Z,99853.01
2023-04-20T03:18:50.037Z,99851.30
2023-04-20T03:19:52.263Z,99849.49
2023-04-20T03:20:54.616Z,99845.91
2023-04-20T03:21:57.383Z,99845.98
2023-04-20T03:22:59.675Z,99848.55
2023-04-20T03:24:02.723Z,99844.11
2023-04-20T03:25:05.777Z,99851.21
2023-04-20T03:26:13.147Z,99846.84
2023-04-20T03:27:17.259Z,99846.84
2023-04-20T03:28:36.673Z,99847.70
2023-04-20T03:29:38.937Z,99853.87
2023-04-20T03:30:41.407Z,99837.94
2023-04-20T03:31:48.678Z,99848.55
2023-04-20T03:32:50.987Z,99845.12
2023-04-20T03:33:53.354Z,99843.25
2023-04-20T03:34:55.641Z,99845.98
2023-04-20T03:35:57.974Z,99845.98
2023-04-20T03:37:00.385Z,99846.76
2023-04-20T03:38:03.576Z,99849.41
2023-04-20T03:39:05.903Z,99846.84
2023-04-20T03:40:09.808Z,99843.25
2023-04-20T03:41:12.181Z,99848.55
2023-04-20T03:42:14.446Z,99842.31
2023-04-20T03:43:16.997Z,99840.59
2023-04-20T03:44:19.442Z,99843.17
2023-04-20T03:45:21.609Z,99841.37
2023-04-20T03:46:25.427Z,99851.91
2023-04-20T03:47:27.840Z,99843.95
2023-04-20T03:48:30.600Z,99843.09
2023-04-20T03:49:33.770Z,99846.59
2023-04-20T03:50:36.291Z,99850.11
2023-04-20T03:51:40.501Z,99842.06
2023-04-20T03:52:42.674Z,99844.80
2023-04-20T03:53:45.617Z,99851.83
2023-04-20T03:54:48.494Z,99847.38
2023-04-20T03:55:51.448Z,99853.55
2023-04-20T03:56:56.243Z,99849.95
2023-04-20T03:57:59.060Z,99842.06
2023-04-20T03:59:02.265Z,99849.09
2023-04-20T04:00:05.920Z,99843.95
2023-04-20T04:01:09.973Z,99836.84
2023-04-20T04:02:14.325Z,99850.11
2023-04-20T04:03:18.385Z,99847.54
2023-04-20T04:04:22.049Z,99843.17
2023-04-20T04:05:25.508Z,99843.17
2023-04-20T04:06:28.925Z,99844.03
2023-04-20T04:07:31.131Z,99843.25
2023-04-20T04:08:33.700Z,99844.96
2023-04-20T04:09:36.327Z,99846.84
2023-04-20T04:10:38.900Z,99848.72
2023-04-20T04:11:41.149Z,99841.61
2023-04-20T04:12:44.724Z,99847.00
2023-04-20T04:13:47.632Z,99839.89
2023-04-20T04:14:50.495Z,99845.36
2023-04-20T04:15:53.699Z,99843.68
2023-04-20T04:16:58.160Z,99839.20
2023-04-20T04:18:02.729Z,99842.82
2023-04-20T04:19:06.317Z,99843.76
2023-04-20T04:20:09.926Z,99838.45
2023-04-20T04:21:12.307Z,99839.47
2023-04-20T04:22:16.401Z,99845.63
2023-04-20T04:23:20.553Z,99833.30
2023-04-20T04:24:27.434Z,99838.69
2023-04-20T04:25:39.071Z,99843.14
2023-04-20T04:26:42.711Z,99837.83
2023-04-20T04:27:45.030Z,99837.91
2023-04-20T04:28:47.440Z,99837.05
2023-04-20T04:29:51.434Z,99845.95
2023-04-20T04:30:54.445Z,99844.23
2023-04-20T04:31:57.982Z,99847.83
2023-04-20T04:33:00.307Z,99839.86
2023-04-20T04:34:02.727Z,99846.11
2023-04-20T04:35:13.453Z,99840.80
2023-04-20T04:36:15.954Z,99837.40
2023-04-20T04:37:18.358Z,99845.25
2023-04-20T04:38:22.339Z,99843.45
2023-04-20T04:39:26.360Z,99842.70
2023-04-20T04:40:30.911Z,99846.30
2023-04-20T04:41:35.287Z,99848.17
2023-04-20T04:42:54.428Z,99843.80
2023-04-20T04:44:00.002Z,99844.58
2023-04-20T04:45:05.023Z,99848.17
2023-04-20T04:46:10.383Z,99844.73
2023-04-20T04:47:12.710Z,99845.52
2023-04-20T04:48:15.094Z,99838.49
2023-04-20T04:49:17.676Z,99844.73
2023-04-20T04:50:21.508Z,99841.30
2023-04-20T04:51:23.601Z,99839.59
2023-04-20T04:52:25.867Z,99840.52
2023-04-20T04:53:28.715Z,99843.17
2023-04-20T04:54:31.034Z,99846.84
2023-04-20T04:55:33.396Z,99845.05
2023-04-20T04:56:36.042Z,99840.68
2023-04-20T04:57:38.077Z,99841.62
2023-04-20T04:58:40.249Z,99839.82
2023-04-20T04:59:42.909Z,99838.96
2023-04-20T05:00:45.260Z,99845.98
2023-04-20T05:01:48.486Z,99848.64
2023-04-20T05:02:50.851Z,99846.92
2023-04-20T05:03:52.991Z,99841.73
2023-04-20T05:04:55.416Z,99837.28
2023-04-20T05:05:57.642Z,99848.72
2023-04-20T05:06:59.812Z,99845.23
2023-04-20T05:08:01.994Z,99846.17
2023-04-20T05:09:03.950Z,99837.36
2023-04-20T05:10:09.325Z,99838.22
2023-04-20T05:11:11.710Z,99838.11
2023-04-20T05:12:13.870Z,99839.82
2023-04-20T05:13:15.898Z,99843.25
2023-04-20T05:14:19.158Z,99834.44
2023-04-20T05:15:21.397Z,99839.59
2023-04-20T05:16:23.812Z,99828.03
2023-04-20T05:17:25.864Z,99835.92
2023-04-20T05:18:28.135Z,99831.47
2023-04-20T05:19:30.418Z,99838.41
2023-04-20T05:20:33.705Z,99837.48
2023-04-20T05:21:35.999Z,99842.70
2023-04-20T05:22:38.465Z,99841.73
2023-04-20T05:23:41.346Z,99831.98
2023-04-20T05:24:43.491Z,99836.27
2023-04-20T05:25:45.665Z,99835.34
2023-04-20T05:26:48.385Z,99842.36
2023-04-20T05:27:50.561Z,99840.64
2023-04-20T05:28:52.742Z,99832.60
2023-04-20T05:29:54.977Z,99838.77
2023-04-20T05:30:57.235Z,99840.41
2023-04-20T05:31:59.444Z,99827.99
2023-04-20T05:33:01.730Z,99835.02
2023-04-20T05:34:04.385Z,99842.05
2023-04-20T05:35:08.148Z,99830.48
2023-04-20T05:36:11.388Z,99838.26
2023-04-20T05:37:15.370Z,99839.03
2023-04-20T05:38:17.517Z,99843.41
2023-04-20T05:39:20.201Z,99844.34
2023-04-20T05:40:22.948Z,99842.55
2023-04-20T05:41:25.134Z,99841.53
2023-04-20T05:42:28.252Z,99834.34
2023-04-20T05:43:30.574Z,99841.53
2023-04-20T05:44:33.162Z,99837.08
2023-04-20T05:45:35.305Z,99841.53
2023-04-20T05:46:37.992Z,99831.77
2023-04-20T05:47:40.069Z,99841.53
2023-04-20T05:48:42.291Z,99841.45
2023-04-20T05:49:44.455Z,99836.06
2023-04-20T05:50:46.852Z,99842.23
2023-04-20T05:51:49.021Z,99832.47
2023-04-20T05:52:52.392Z,99839.58
2023-04-20T05:53:55.612Z,99846.68
2023-04-20T05:54:57.584Z,99838.80
2023-04-20T05:55:59.646Z,99841.53
2023-04-20T05:57:02.293Z,99845.91
2023-04-20T05:58:04.738Z,99847.70
2023-04-20T05:59:08.973Z,99844.96
2023-04-20T06:00:14.639Z,99836.06
2023-04-20T06:01:18.380Z,99843.95
2023-04-20T06:02:20.840Z,99839.49
2023-04-20T06:03:23.254Z,99845.58
2023-04-20T06:04:26.434Z,99844.64
2023-04-20T06:05:29.535Z,99854.41
2023-04-20T06:06:32.057Z,99853.44
2023-04-20T06:07:34.330Z,99839.14
2023-04-20T06:08:37.122Z,99845.23
2023-04-20T06:09:39.800Z,99850.45
2023-04-20T06:10:41.954Z,99849.59
2023-04-20T06:11:44.627Z,99844.16
2023-04-20T06:12:46.803Z,99850.25
2023-04-20T06:13:49.456Z,99847.59
2023-04-20T06:14:51.614Z,99857.19
2023-04-20T06:15:54.252Z,99837.75
2023-04-20T06:16:57.668Z,99845.71
2023-04-20T06:17:59.863Z,99841.14
2023-04-20T06:19:02.350Z,99841.06
2023-04-20T06:21:17.038Z,99836.03
2023-04-20T06:22:20.872Z,99833.17
2023-04-20T06:23:23.502Z,99833.95
2023-04-20T06:24:25.696Z,99833.87
2023-04-20T06:25:27.867Z,99830.20
2023-04-20T06:26:30.027Z,99825.83
2023-04-20T06:27:32.182Z,99821.28
2023-04-20T06:28:35.086Z,99815.03
2023-04-20T06:29:37.729Z,99828.31
2023-04-20T06:30:39.881Z,99827.45
2023-04-20T06:31:42.049Z,99822.92
2023-04-20T06:32:44.337Z,99824.63
2023-04-20T06:33:47.120Z,99818.30
2023-04-20T06:34:49.333Z,99824.27
2023-04-20T06:35:52.357Z,99821.53
2023-04-20T06:36:54.677Z,99817.94
2023-04-20T06:37:57.432Z,99827.62
2023-04-20T06:38:59.779Z,99823.08
2023-04-20T06:40:02.761Z,99815.89
2023-04-20T06:41:05.133Z,99808.69
2023-04-20T06:42:07.765Z,99812.20
2023-04-20T06:43:09.728Z,99804.03
2023-04-20T06:44:11.991Z,99807.55
2023-04-20T06:45:14.309Z,99817.15
2023-04-20T06:46:17.416Z,99802.92
2023-04-20T06:47:20.005Z,99806.44
2023-04-20T06:48:30.689Z,99808.06
2023-04-20T06:49:27.113Z,99803.52
2023-04-20T06:50:29.411Z,99806.09
2023-04-20T06:51:31.963Z,99800.58
2023-04-20T06:53:46.552Z,99799.89
2023-04-20T06:54:48.866Z,99805.89
2023-04-20T06:55:56.459Z,99794.32
2023-04-20T06:56:59.121Z,99804.70
2023-04-20T06:58:01.266Z,99793.03
2023-04-20T06:59:03.434Z,99807.09
2023-04-20T07:00:08.022Z,99799.12
2023-04-20T07:01:10.957Z,99799.12
2023-04-20T07:02:13.532Z,99803.50
2023-04-20T07:03:16.256Z,99795.61
2023-04-20T07:04:18.668Z,99793.98
2023-04-20T07:05:21.087Z,99794.92
2023-04-20T07:06:23.562Z,99793.20
2023-04-20T07:07:26.140Z,99799.55
2023-04-20T07:08:28.767Z,99793.38
2023-04-20T07:09:31.587Z,99794.52
2023-04-20T07:10:34.297Z,99789.30
2023-04-20T07:11:37.031Z,99789.30
2023-04-20T07:12:42.671Z,99783.20
2023-04-20T07:13:44.635Z,99784.23
2023-04-20T07:14:47.277Z,99785.17
2023-04-20T07:15:49.468Z,99786.20
2023-04-20T07:16:52.692Z,99778.41
2023-04-20T07:17:55.944Z,99782.86
2023-04-20T07:18:58.193Z,99787.44
2023-04-20T07:20:00.768Z,99777.75
2023-04-20T07:21:03.074Z,99780.41
2023-04-20T07:22:05.393Z,99788.37
2023-04-20T07:23:07.577Z,99780.58
2023-04-20T07:24:09.639Z,99787.61
2023-04-20T07:25:11.846Z,99791.20
2023-04-20T07:26:14.152Z,99792.06
2023-04-20T07:27:16.462Z,99794.80
2023-04-20T07:28:18.645Z,99793.94
2023-04-20T07:29:21.053Z,99793.94
2023-04-20T07:30:23.771Z,99783.40
2023-04-20T07:31:25.983Z,99779.03
2023-04-20T07:32:28.556Z,99791.38
2023-04-20T07:33:30.743Z,99792.31
2023-04-20T07:34:32.927Z,99783.48
2023-04-20T07:35:34.977Z,99793.25
2023-04-20T07:36:37.448Z,99791.45
2023-04-20T07:37:40.614Z,99794.97
2023-04-20T07:38:43.061Z,99793.25
2023-04-20T07:39:45.292Z,99800.45
2023-04-20T07:40:47.455Z,99788.97
2023-04-20T07:41:50.281Z,99790.88
2023-04-20T07:42:52.995Z,99795.33
2023-04-20T07:43:55.458Z,99791.91
2023-04-20T07:44:57.804Z,99789.33
2023-04-20T07:46:00.956Z,99789.41
2023-04-20T07:47:03.412Z,99790.36
2023-04-20T07:48:05.829Z,99789.50
2023-04-20T07:49:08.036Z,99786.92
2023-04-20T07:50:11.383Z,99793.09
2023-04-20T07:51:13.492Z,99791.38
2023-04-20T07:52:17.189Z,99790.52
2023-04-20T07:53:19.877Z,99786.92
2023-04-20T07:54:21.953Z,99786.92
2023-04-20T07:55:24.597Z,99788.64
2023-04-20T07:56:26.874Z,99787.78
2023-04-20T07:57:29.984Z,99784.27
2023-04-20T07:58:32.574Z,99793.09
2023-04-20T07:59:35.044Z,99792.23
2023-04-20T08:00:37.331Z,99781.61
2023-04-20T08:01:39.488Z,99797.47
2023-04-20T08:02:41.883Z,99785.90
2023-04-20T08:03:44.396Z,99789.41
2023-04-20T08:04:47.285Z,99794.73
2023-04-20T08:05:49.544Z,99789.50
2023-04-20T08:06:51.840Z,99797.38
2023-04-20T08:07:54.385Z,99798.23
2023-04-20T08:08:56.583Z,99792.07
2023-04-20T08:09:58.796Z,99798.33
2023-04-20T08:11:00.974Z,99788.64
2023-04-20T08:12:03.793Z,99791.38
2023-04-20T08:13:06.043Z,99787.95
2023-04-20T08:14:08.225Z,99796.00
2023-04-20T08:15:11.325Z,99800.45
2023-04-20T08:16:14.221Z,99798.77
2023-04-20T08:17:16.828Z,99797.91
2023-04-20T08:18:20.733Z,99795.26
2023-04-20T08:19:23.411Z,99802.36
2023-04-20T08:20:26.817Z,99804.94
2023-04-20T08:21:28.926Z,99802.28
2023-04-20T08:22:31.634Z,99797.91
2023-04-20T08:23:34.218Z,99792.60
2023-04-20T08:24:36.279Z,99800.56
2023-04-20T08:25:39.052Z,99793.45
2023-04-20T08:26:42.505Z,99809.39
2023-04-20T08:27:44.636Z,99792.69
2023-04-20T08:28:46.992Z,99801.50
2023-04-20T08:29:49.186Z,99798.85
2023-04-20T08:30:53.142Z,99795.42
2023-04-20T08:31:55.581Z,99792.77
2023-04-20T08:32:58.824Z,99803.47
2023-04-20T08:34:01.769Z,99789.17
2023-04-20T08:35:04.900Z,99799.80
2023-04-20T08:36:07.896Z,99800.66
2023-04-20T08:37:10.133Z,99801.50
2023-04-20T08:38:15.641Z,99808.53
2023-04-20T08:39:19.876Z,99807.76
2023-04-20T08:40:23.360Z,99807.67
2023-04-20T08:41:25.454Z,99807.67
2023-04-20T08:42:27.610Z,99807.67
2023-04-20T08:43:31.055Z,99805.77
2023-04-20T08:44:33.258Z,99811.08
2023-04-20T08:45:35.744Z,99816.50
2023-04-20T08:46:40.020Z,99806.62
2023-04-20T08:47:42.709Z,99807.48
2023-04-20T08:48:46.263Z,99810.05
2023-04-20T08:49:52.284Z,99815.36
2023-04-20T08:50:55.188Z,99813.65
2023-04-20T08:51:57.448Z,99824.27
2023-04-20T08:52:59.601Z,99813.65
2023-04-20T08:54:05.697Z,99811.19
2023-04-20T08:55:08.814Z,99814.78
2023-04-20T08:56:11.956Z,99814.87
2023-04-20T08:57:14.106Z,99816.66
2023-04-20T08:58:16.962Z,99830.93
2023-04-20T08:59:19.394Z,99813.28
2023-04-20T09:00:21.761Z,99821.25
2023-04-20T09:01:35.675Z,99818.67
2023-04-20T09:02:34.133Z,99816.02
2023-04-20T09:03:41.319Z,99814.30
2023-04-20T09:04:44.030Z,99812.59
2023-04-20T09:05:46.111Z,99810.02
2023-04-20T09:06:53.637Z,99818.84
2023-04-20T09:07:57.834Z,99805.56
2023-04-20T09:09:00.060Z,99810.02
2023-04-20T09:10:02.673Z,99801.11
2023-04-20T09:11:04.927Z,99816.18
2023-04-20T09:12:07.705Z,99817.13
2023-04-20T09:13:22.191Z,99810.02
2023-04-20T09:14:24.839Z,99818.84
2023-04-20T09:15:30.642Z,99817.90
2023-04-20T09:16:34.350Z,99811.73
2023-04-20T09:17:38.020Z,99817.04
2023-04-20T09:18:42.216Z,99823.41
2023-04-20T09:19:45.704Z,99825.20
2023-04-20T09:20:48.727Z,99804.05
2023-04-20T09:21:53.162Z,99825.28
2023-04-20T09:22:56.074Z,99812.00
2023-04-20T09:24:00.518Z,99814.66
2023-04-20T09:25:14.769Z,99816.38
2023-04-20T09:26:18.365Z,99812.78
2023-04-20T09:27:20.543Z,99803.84
2023-04-20T09:28:22.729Z,99808.22
2023-04-20T09:29:25.763Z,99816.88
2023-04-20T09:30:39.409Z,99811.48
2023-04-20T09:31:42.317Z,99805.23
2023-04-20T09:32:46.577Z,99802.28
2023-04-20T09:33:56.741Z,99801.31
2023-04-20T09:35:00.925Z,99804.66
2023-04-20T09:36:05.141Z,99801.84
2023-04-20T09:37:09.053Z,99792.84
2023-04-20T09:38:16.165Z,99796.28
2023-04-20T09:39:20.946Z,99803.22
2023-04-20T09:40:24.981Z,99806.53
2023-04-20T09:41:27.431Z,99800.11
2023-04-20T09:42:32.097Z,99799.95
2023-04-20T09:43:36.165Z,99797.98
2023-04-20T09:44:39.740Z,99795.13
2023-04-20T09:45:43.058Z,99802.84
2023-04-20T09:46:46.263Z,99796.50
2023-04-20T09:47:49.685Z,99794.61
2023-04-20T09:48:53.457Z,99786.55
2023-04-20T09:50:00.099Z,99799.72
2023-04-20T09:51:02.823Z,99800.41
2023-04-20T09:52:05.018Z,99803.75
2023-04-20T09:53:07.598Z,99802.72
2023-04-20T09:54:12.075Z,99803.50
2023-04-20T09:55:14.523Z,99798.18
2023-04-20T09:56:17.266Z,99798.18
2023-04-20T09:57:21.187Z,99794.58
2023-04-20T09:58:24.258Z,99807.75
2023-04-20T09:59:27.279Z,99806.92
2023-04-20T10:00:29.629Z,99793.64
2023-04-20T10:01:33.081Z,99799.89
2023-04-20T10:02:35.594Z,99792.78
2023-04-20T10:03:44.052Z,99801.48
2023-04-20T10:04:56.398Z,99799.69
2023-04-20T10:05:58.682Z,99798.83
2023-04-20T10:07:00.946Z,99796.09
2023-04-20T10:08:03.223Z,99805.00
2023-04-20T10:09:07.848Z,99796.95
2023-04-20T10:10:15.632Z,99795.05
2023-04-20T10:11:49.067Z,99792.40
2023-04-20T10:12:51.334Z,99793.17
2023-04-20T10:13:53.778Z,99802.00
2023-04-20T10:14:56.936Z,99802.77
2023-04-20T10:15:59.598Z,99800.88
2023-04-20T10:17:07.293Z,99795.56
2023-04-20T10:18:21.310Z,99795.36
2023-04-20T10:19:23.650Z,99800.68
2023-04-20T10:20:28.076Z,99813.03
2023-04-20T10:21:32.304Z,99800.68
2023-04-20T10:22:35.653Z,99799.82
2023-04-20T10:23:48.421Z,99799.94
2023-04-20T10:24:50.635Z,99802.59
2023-04-20T10:25:59.526Z,99808.00
2023-04-20T10:27:02.239Z,99806.20
2023-04-20T10:28:06.152Z,99802.69
2023-04-20T10:29:09.470Z,99808.00
2023-04-20T10:30:12.956Z,99800.03
2023-04-20T10:31:15.233Z,99808.86
2023-04-20T10:32:25.812Z,99802.77
2023-04-20T10:33:28.280Z,99810.75
2023-04-20T10:34:32.022Z,99808.95
2023-04-20T10:35:50.071Z,99809.80
2023-04-20T10:36:52.368Z,99813.41
2023-04-20T10:37:54.889Z,99813.32
2023-04-20T10:38:58.267Z,99811.52
2023-04-20T10:40:01.293Z,99813.23
2023-04-20T10:42:19.337Z,99810.02
2023-04-20T10:43:21.855Z,99814.61
2023-04-20T10:44:24.956Z,99810.15
2023-04-20T10:45:37.231Z,99812.81
2023-04-20T10:46:39.665Z,99819.92
2023-04-20T10:47:42.442Z,99814.70
2023-04-20T10:48:53.861Z,99820.78
2023-04-20T10:50:07.582Z,99824.30
2023-04-20T10:51:10.519Z,99819.92
2023-04-20T10:52:13.035Z,99809.29
2023-04-20T10:54:38.219Z,99819.20
2023-04-20T10:55:41.536Z,99812.03
2023-04-20T10:56:48.511Z,99818.21
2023-04-20T10:57:51.592Z,99822.50
2023-04-20T10:58:53.803Z,99820.70
2023-04-20T10:59:56.371Z,99817.18
2023-04-20T11:01:04.090Z,99815.30
2023-04-20T11:02:08.404Z,99818.72
2023-04-20T11:03:11.747Z,99815.20
2023-04-20T11:04:16.989Z,99815.12
2023-04-20T11:05:19.891Z,99831.08
2023-04-20T11:06:23.780Z,99818.72
2023-04-20T11:07:26.107Z,99821.47
2023-04-20T11:08:42.565Z,99821.38
2023-04-20T11:09:44.749Z,99829.36
2023-04-20T11:10:47.110Z,99827.47
2023-04-20T11:13:07.729Z,99825.03
2023-04-20T11:14:11.788Z,99825.75
2023-04-20T11:15:14.074Z,99828.41
2023-04-20T11:16:18.506Z,99831.84
2023-04-20T11:20:13.499Z,99833.78
2023-04-20T11:21:15.733Z,99829.27
2023-04-20T11:22:22.405Z,99838.11
2023-04-20T11:23:24.927Z,99833.64
2023-04-20T11:24:30.135Z,99837.25
2023-04-20T11:25:33.360Z,99840.77
2023-04-20T11:26:36.970Z,99835.53
2023-04-20T11:27:39.484Z,99832.96
2023-04-20T11:28:56.716Z,99820.61
2023-04-20T11:30:01.290Z,99834.84
2023-04-20T11:31:03.711Z,99826.95
2023-04-20T11:32:08.456Z,99829.70
2023-04-20T11:33:11.570Z,99834.08
2023-04-20T11:34:18.028Z,99840.33
2023-04-20T11:35:20.207Z,99834.16
2023-04-20T11:36:23.875Z,99835.96
2023-04-20T11:37:27.020Z,99827.22
2023-04-20T11:38:33.933Z,99829.88
2023-04-20T11:39:37.099Z,99828.19
2023-04-20T11:40:39.853Z,99818.38
2023-04-20T11:41:41.951Z,99829.88
2023-04-20T11:42:44.512Z,99824.55
2023-04-20T11:43:46.754Z,99837.11
2023-04-20T11:44:48.917Z,99818.50
2023-04-20T11:45:51.149Z,99835.39
2023-04-20T11:46:54.422Z,99823.05
2023-04-20T11:47:56.761Z,99822.19
2023-04-20T11:48:59.540Z,99819.61
2023-04-20T11:50:02.304Z,99819.61
2023-04-20T11:51:05.545Z,99817.81
2023-04-20T11:52:08.310Z,99824.93
2023-04-20T11:53:10.364Z,99821.41
2023-04-20T11:54:13.132Z,99817.81
2023-04-20T11:55:15.370Z,99822.27
2023-04-20T11:56:17.504Z,99814.30
2023-04-20T11:57:19.664Z,99810.70
2023-04-20T11:58:21.846Z,99816.02
2023-04-20T11:59:24.120Z,99817.73
2023-04-20T12:00:26.878Z,99813.27
2023-04-20T12:01:29.122Z,99817.73
2023-04-20T12:02:31.882Z,99814.12
2023-04-20T12:03:34.206Z,99816.78
2023-04-20T12:04:36.657Z,99817.56
2023-04-20T12:05:39.144Z,99814.78
2023-04-20T12:06:41.474Z,99810.33
2023-04-20T12:07:43.924Z,99817.35
2023-04-20T12:08:45.949Z,99815.55
2023-04-20T12:09:48.049Z,99809.29
2023-04-20T12:10:50.232Z,99812.72
2023-04-20T12:11:52.983Z,99810.92
2023-04-20T12:12:55.160Z,99808.09
2023-04-20T12:13:57.914Z,99806.38
2023-04-20T12:15:00.157Z,99807.14
2023-04-20T12:16:02.131Z,99798.23
2023-04-20T12:17:05.090Z,99813.03
2023-04-20T12:18:07.334Z,99809.42
2023-04-20T12:19:09.923Z,99813.80
2023-04-20T12:20:13.120Z,99811.91
2023-04-20T12:21:15.364Z,99805.64
2023-04-20T12:22:17.420Z,99805.47
2023-04-20T12:23:20.700Z,99810.79
2023-04-20T12:24:23.321Z,99809.84
2023-04-20T12:25:25.502Z,99810.62
2023-04-20T12:26:37.168Z,99805.30
2023-04-20T12:27:33.079Z,99805.30
2023-04-20T12:28:35.328Z,99808.70
2023-04-20T12:29:37.405Z,99807.02
2023-04-20T12:30:39.825Z,99815.73
2023-04-20T12:31:42.045Z,99812.13
2023-04-20T12:32:44.339Z,99806.80
2023-04-20T12:33:46.964Z,99804.91
2023-04-20T12:34:50.056Z,99804.91
2023-04-20T12:35:52.272Z,99807.48
2023-04-20T12:36:54.526Z,99806.62
2023-04-20T12:37:56.623Z,99795.13